createdAt,value
2022-08-08T00:00:59.724Z,1.80
2022-08-08T00:02:50.939Z,2.20
2022-08-08T00:05:44.244Z,2.10
2022-08-08T00:08:16.664Z,2.08
2022-08-08T00:10:49.721Z,1.98
2022-08-08T00:14:17.691Z,2.08
2022-08-08T00:16:11.180Z,1.83
2022-08-08T00:18:44.255Z,1.90
2022-08-08T00:21:16.554Z,2.03
2022-08-08T00:23:51.334Z,2.05
2022-08-08T00:26:29.129Z,1.83
2022-08-08T00:29:02.015Z,2.03
2022-08-08T00:32:20.397Z,2.05
2022-08-08T00:34:51.406Z,1.95
2022-08-08T00:37:46.874Z,2.05
2022-08-08T00:41:12.219Z,1.90
2022-08-08T00:43:56.321Z,1.83
2022-08-08T00:46:57.337Z,2.10
2022-08-08T00:49:58.746Z,2.10
2022-08-08T00:52:48.863Z,1.80
2022-08-08T00:55:52.485Z,1.98
2022-08-08T00:58:39.881Z,1.80
2022-08-08T01:01:15.822Z,1.98
2022-08-08T01:04:29.576Z,1.80
2022-08-08T01:07:56.435Z,2.15
2022-08-08T01:10:52.918Z,2.30
2022-08-08T01:13:52.883Z,2.10
2022-08-08T01:16:50.617Z,2.05
2022-08-08T01:20:01.981Z,2.35
2022-08-08T01:22:58.593Z,2.00
2022-08-08T01:26:11.687Z,2.30
2022-08-08T01:29:09.816Z,2.10
2022-08-08T01:32:23.934Z,2.00
2022-08-08T01:35:40.518Z,1.80
2022-08-08T01:38:34.182Z,2.00
2022-08-08T01:41:06.485Z,2.20
2022-08-08T01:43:44.404Z,2.00
2022-08-08T01:46:39.592Z,2.00
2022-08-08T01:49:23.021Z,2.05
2022-08-08T01:52:41.941Z,2.00
2022-08-08T01:55:26.314Z,2.00
2022-08-08T01:58:11.329Z,1.90
2022-08-08T02:00:44.427Z,2.13
2022-08-08T02:03:57.477Z,2.00
2022-08-08T02:06:32.445Z,1.95
2022-08-08T02:09:19.324Z,2.03
2022-08-08T02:12:12.577Z,2.10
2022-08-08T02:14:55.503Z,2.10
2022-08-08T02:17:42.440Z,2.25
2022-08-08T02:21:00.751Z,2.08
2022-08-08T02:23:16.441Z,2.10
2022-08-08T02:25:49.675Z,2.00
2022-08-08T02:28:26.034Z,2.08
2022-08-08T02:31:57.878Z,2.10
2022-08-08T02:34:12.264Z,2.10
2022-08-08T02:36:54.721Z,1.95
2022-08-08T02:39:41.231Z,3.03
2022-08-08T02:42:38.231Z,2.00
2022-08-08T02:45:28.881Z,2.05
2022-08-08T02:48:27.271Z,2.17
2022-08-08T02:51:30.204Z,2.28
2022-08-08T02:54:50.078Z,2.03
2022-08-08T02:58:08.515Z,2.00
2022-08-08T03:01:03.926Z,2.10
2022-08-08T03:05:08.976Z,2.00
2022-08-08T03:07:41.634Z,1.90
2022-08-08T03:10:44.700Z,2.10
2022-08-08T03:16:00.047Z,2.20
2022-08-08T03:16:35.389Z,1.95
2022-08-08T03:19:29.670Z,2.17
2022-08-08T03:21:59.910Z,1.98
2022-08-08T03:24:31.546Z,2.13
2022-08-08T03:27:05.311Z,2.30
2022-08-08T03:29:55.758Z,2.20
2022-08-08T03:32:47.561Z,2.08
2022-08-08T03:35:30.117Z,2.20
2022-08-08T03:38:53.570Z,2.35
2022-08-08T03:40:53.570Z,2.00
2022-08-08T03:43:25.160Z,2.28
2022-08-08T03:46:09.254Z,2.10
2022-08-08T03:49:56.374Z,2.15
2022-08-08T03:51:40.133Z,2.00
2022-08-08T03:54:40.865Z,2.17
2022-08-08T03:58:35.512Z,2.63
2022-08-08T04:00:08.096Z,2.15
2022-08-08T04:02:54.680Z,2.20
2022-08-08T04:05:28.786Z,2.10
2022-08-08T04:08:01.423Z,2.10
2022-08-08T04:10:32.310Z,2.25
2022-08-08T04:13:17.369Z,2.08
2022-08-08T04:15:46.236Z,2.38
2022-08-08T04:18:41.931Z,2.05
2022-08-08T04:21:12.556Z,2.10
2022-08-08T04:24:12.184Z,2.30
2022-08-08T04:26:39.937Z,2.15
2022-08-08T04:29:18.843Z,2.10
2022-08-08T04:31:58.366Z,2.30
2022-08-08T04:34:31.709Z,2.05
2022-08-08T04:37:03.851Z,2.10
2022-08-08T04:40:05.763Z,1.92
2022-08-08T04:42:22.384Z,2.10
2022-08-08T04:44:52.840Z,2.20
2022-08-08T04:47:21.021Z,2.28
2022-08-08T04:49:58.662Z,2.30
2022-08-08T04:52:35.080Z,2.20
2022-08-08T04:55:09.674Z,2.28
2022-08-08T04:57:38.769Z,2.20
2022-08-08T05:00:10.733Z,2.30
2022-08-08T05:02:42.399Z,2.05
2022-08-08T05:05:16.260Z,2.17
2022-08-08T05:07:48.882Z,2.30
2022-08-08T05:10:18.310Z,2.10
2022-08-08T05:13:00.028Z,2.00
2022-08-08T05:16:54.928Z,2.10
2022-08-08T05:18:21.067Z,2.10
2022-08-08T05:20:52.210Z,2.10
2022-08-08T05:23:21.448Z,2.20
2022-08-08T05:25:49.891Z,1.90
2022-08-08T05:28:48.331Z,1.92
2022-08-08T05:31:30.776Z,2.10
2022-08-08T05:33:59.005Z,2.10
2022-08-08T05:36:28.194Z,2.10
2022-08-08T05:38:59.083Z,2.25
2022-08-08T05:41:27.853Z,2.05
2022-08-08T05:44:04.610Z,2.00
2022-08-08T05:46:35.350Z,1.98
2022-08-08T05:49:10.940Z,2.03
2022-08-08T05:51:48.940Z,2.05
2022-08-08T05:54:28.803Z,2.13
2022-08-08T05:57:10.721Z,2.20
2022-08-08T05:59:57.696Z,1.92
2022-08-08T06:03:01.289Z,2.00
2022-08-08T06:05:35.218Z,2.10
2022-08-08T06:08:09.714Z,2.25
2022-08-08T06:10:48.516Z,2.00
2022-08-08T06:13:22.002Z,1.90
2022-08-08T06:15:53.616Z,2.17
2022-08-08T06:18:34.736Z,2.05
2022-08-08T06:21:11.668Z,1.73
2022-08-08T06:24:04.761Z,2.10
2022-08-08T06:26:45.423Z,2.17
2022-08-08T06:29:49.544Z,2.05
2022-08-08T06:32:15.025Z,2.20
2022-08-08T06:35:11.814Z,1.98
2022-08-08T06:37:45.817Z,2.05
2022-08-08T06:40:19.573Z,2.00
2022-08-08T06:42:55.416Z,2.10
2022-08-08T06:45:30.234Z,1.92
2022-08-08T06:48:01.318Z,1.90
2022-08-08T06:50:38.479Z,1.95
2022-08-08T06:53:14.299Z,1.70
2022-08-08T06:56:02.234Z,2.10
2022-08-08T06:58:34.037Z,1.90
2022-08-08T07:01:11.649Z,2.05
2022-08-08T07:04:40.139Z,2.10
2022-08-08T07:06:46.360Z,1.85
2022-08-08T07:09:18.140Z,1.95
2022-08-08T07:11:51.867Z,2.10
2022-08-08T07:14:26.597Z,1.80
2022-08-08T07:17:02.526Z,2.00
2022-08-08T07:19:35.117Z,1.85
2022-08-08T07:22:11.966Z,1.90
2022-08-08T07:24:52.964Z,1.63
2022-08-08T07:27:27.730Z,1.90
2022-08-08T07:30:09.968Z,1.90
2022-08-08T07:32:43.197Z,1.73
2022-08-08T07:35:14.856Z,1.90
2022-08-08T07:37:55.849Z,1.90
2022-08-08T07:40:45.238Z,1.92
2022-08-08T07:43:14.225Z,1.80
2022-08-08T07:46:05.153Z,1.83
2022-08-08T07:48:37.189Z,2.10
2022-08-08T07:51:05.475Z,1.58
2022-08-08T07:54:02.308Z,1.92
2022-08-08T07:56:38.224Z,1.77
2022-08-08T07:59:11.629Z,1.70
2022-08-08T08:02:34.716Z,1.88
2022-08-08T08:04:40.043Z,1.88
2022-08-08T08:07:10.866Z,1.70
2022-08-08T08:09:42.185Z,1.90
2022-08-08T08:12:26.440Z,1.90
2022-08-08T08:15:04.361Z,1.80
2022-08-08T08:17:44.948Z,2.00
2022-08-08T08:20:17.040Z,1.73
2022-08-08T08:22:45.059Z,1.85
2022-08-08T08:25:40.807Z,1.70
2022-08-08T08:28:05.125Z,1.88
2022-08-08T08:30:37.921Z,1.48
2022-08-08T08:33:05.835Z,1.63
2022-08-08T08:36:17.567Z,1.70
2022-08-08T08:38:27.441Z,1.90
2022-08-08T08:41:06.152Z,1.70
2022-08-08T08:43:45.139Z,1.70
2022-08-08T08:46:17.773Z,1.70
2022-08-08T08:48:49.263Z,2.00
2022-08-08T08:51:18.681Z,1.85
2022-08-08T08:53:55.968Z,1.83
2022-08-08T08:56:32.131Z,1.60
2022-08-08T08:59:06.855Z,1.52
2022-08-08T09:01:43.862Z,1.75
2022-08-08T09:04:31.367Z,1.58
2022-08-08T09:07:12.227Z,1.50
2022-08-08T09:09:48.185Z,1.60
2022-08-08T09:12:27.516Z,1.73
2022-08-08T09:14:57.900Z,1.75
2022-08-08T09:17:41.326Z,1.63
2022-08-08T09:21:58.409Z,1.48
2022-08-08T09:23:11.195Z,1.65
2022-08-08T09:25:55.018Z,1.50
2022-08-08T09:28:37.562Z,1.60
2022-08-08T09:31:14.327Z,1.77
2022-08-08T09:34:14.604Z,1.63
2022-08-08T09:36:36.099Z,1.50
2022-08-08T09:39:15.594Z,1.70
2022-08-08T09:42:14.696Z,1.50
2022-08-08T09:44:51.278Z,1.60
2022-08-08T09:48:03.844Z,1.60
2022-08-08T09:50:11.821Z,1.75
2022-08-08T09:52:55.588Z,1.35
2022-08-08T09:55:51.924Z,1.55
2022-08-08T09:58:20.320Z,1.40
2022-08-08T10:00:59.097Z,1.90
2022-08-08T10:03:26.923Z,1.70
2022-08-08T10:05:54.782Z,1.63
2022-08-08T10:08:22.601Z,1.73
2022-08-08T10:10:51.210Z,1.60
2022-08-08T10:13:25.899Z,1.38
2022-08-08T10:16:01.934Z,1.55
2022-08-08T10:18:33.375Z,1.60
2022-08-08T10:21:23.295Z,1.50
2022-08-08T10:23:58.278Z,1.75
2022-08-08T10:26:40.630Z,1.40
2022-08-08T10:29:22.920Z,1.42
2022-08-08T10:32:15.195Z,1.75
2022-08-08T10:34:51.121Z,1.60
2022-08-08T10:37:27.804Z,1.50
2022-08-08T10:39:58.386Z,1.60
2022-08-08T10:42:34.801Z,1.63
2022-08-08T10:45:08.910Z,1.42
2022-08-08T10:47:43.193Z,1.30
2022-08-08T10:50:15.731Z,1.40
2022-08-08T10:52:44.577Z,1.42
2022-08-08T10:55:15.611Z,1.40
2022-08-08T10:58:03.598Z,1.60
2022-08-08T11:00:39.261Z,1.40
2022-08-08T11:03:36.839Z,1.50
2022-08-08T11:06:12.249Z,1.55
2022-08-08T11:08:46.251Z,1.70
2022-08-08T11:11:32.068Z,1.58
2022-08-08T11:14:12.394Z,1.50
2022-08-08T11:16:46.580Z,1.40
2022-08-08T11:19:17.202Z,1.48
2022-08-08T11:21:55.715Z,1.50
2022-08-08T11:24:24.485Z,1.42
2022-08-08T11:26:56.544Z,1.38
2022-08-08T11:29:41.933Z,1.45
2022-08-08T11:32:13.273Z,1.55
2022-08-08T11:35:07.862Z,1.67
2022-08-08T11:38:35.501Z,1.30
2022-08-08T11:40:21.477Z,1.50
2022-08-08T11:42:53.467Z,1.42
2022-08-08T11:45:22.798Z,1.27
2022-08-08T11:48:02.480Z,1.40
2022-08-08T11:50:34.398Z,1.30
2022-08-08T11:53:06.063Z,1.48
2022-08-08T11:55:36.400Z,1.50
2022-08-08T11:58:14.133Z,1.50
2022-08-08T12:00:47.106Z,1.40
2022-08-08T12:03:17.270Z,1.40
2022-08-08T12:05:50.615Z,1.40
2022-08-08T12:08:30.369Z,1.38
2022-08-08T12:11:01.130Z,1.70
2022-08-08T12:13:38.379Z,1.40
2022-08-08T12:16:19.721Z,1.40
2022-08-08T12:18:48.911Z,1.30
2022-08-08T12:22:00.267Z,1.50
2022-08-08T12:24:17.087Z,1.38
2022-08-08T12:26:45.924Z,1.30
2022-08-08T12:29:36.204Z,1.65
2022-08-08T12:32:17.240Z,1.60
2022-08-08T12:34:53.787Z,1.50
2022-08-08T12:37:40.747Z,1.30
2022-08-08T12:40:22.398Z,1.30
2022-08-08T12:42:50.885Z,1.20
2022-08-08T12:45:57.753Z,1.42
2022-08-08T12:48:32.140Z,1.40
2022-08-08T12:50:58.458Z,1.15
2022-08-08T12:53:35.190Z,1.25
2022-08-08T12:56:19.170Z,1.38
2022-08-08T12:58:54.461Z,1.42
2022-08-08T13:01:34.961Z,1.45
2022-08-08T13:04:18.965Z,1.20
2022-08-08T13:07:00.664Z,1.52
2022-08-08T13:09:43.212Z,1.38
2022-08-08T13:12:28.974Z,1.17
2022-08-08T13:14:57.697Z,1.33
2022-08-08T13:18:08.522Z,1.48
2022-08-08T13:20:17.423Z,1.40
2022-08-08T13:22:46.380Z,1.30
2022-08-08T13:25:16.976Z,1.30
2022-08-08T13:27:44.818Z,1.27
2022-08-08T13:30:20.821Z,1.23
2022-08-08T13:32:48.975Z,1.30
2022-08-08T13:35:29.318Z,1.30
2022-08-08T13:38:08.070Z,1.20
2022-08-08T13:40:41.633Z,1.17
2022-08-08T13:43:13.041Z,1.40
2022-08-08T13:45:41.011Z,1.20
2022-08-08T13:48:12.604Z,1.40
2022-08-08T13:50:50.982Z,1.15
2022-08-08T13:53:28.096Z,1.13
2022-08-08T13:56:02.060Z,1.30
2022-08-08T13:58:30.095Z,1.30
2022-08-08T14:00:58.000Z,1.40
2022-08-08T14:03:53.613Z,1.40
2022-08-08T14:06:33.503Z,1.40
2022-08-08T14:09:24.755Z,1.13
2022-08-08T14:11:51.291Z,1.20
2022-08-08T14:14:21.037Z,1.10
2022-08-08T14:16:53.910Z,1.33
2022-08-08T14:19:58.248Z,1.20
2022-08-08T14:22:21.552Z,1.27
2022-08-08T14:24:50.594Z,1.20
2022-08-08T14:27:27.239Z,1.30
2022-08-08T14:29:58.395Z,1.02
2022-08-08T14:32:29.860Z,1.15
2022-08-08T14:35:04.469Z,1.40
2022-08-08T14:37:43.124Z,1.40
2022-08-08T14:40:21.386Z,1.20
2022-08-08T14:42:54.748Z,1.40
2022-08-08T14:45:33.471Z,1.50
2022-08-08T14:48:12.886Z,1.40
2022-08-08T14:50:46.956Z,1.20
2022-08-08T14:53:15.985Z,1.15
2022-08-08T14:55:43.888Z,1.10
2022-08-08T14:58:16.986Z,1.30
2022-08-08T15:00:48.273Z,1.20
2022-08-08T15:03:17.286Z,1.20
2022-08-08T15:05:53.755Z,1.30
2022-08-08T15:08:33.520Z,1.20
2022-08-08T15:11:06.885Z,1.10
2022-08-08T15:13:41.254Z,1.30
2022-08-08T15:16:23.718Z,1.17
2022-08-08T15:18:51.939Z,1.30
2022-08-08T15:21:20.745Z,1.17
2022-08-08T15:23:51.574Z,1.17
2022-08-08T15:26:19.730Z,1.30
2022-08-08T15:28:50.858Z,1.27
2022-08-08T15:32:02.806Z,1.23
2022-08-08T15:34:28.772Z,1.23
2022-08-08T15:36:57.178Z,1.23
2022-08-08T15:39:25.705Z,1.35
2022-08-08T15:41:53.965Z,1.15
2022-08-08T15:44:23.133Z,1.33
2022-08-08T15:46:51.280Z,1.15
2022-08-08T15:49:20.755Z,1.17
2022-08-08T15:51:50.079Z,1.20
2022-08-08T15:54:37.254Z,1.10
2022-08-08T15:57:07.465Z,1.38
2022-08-08T16:00:05.283Z,1.00
2022-08-08T16:02:30.486Z,1.20
2022-08-08T16:04:59.137Z,1.15
2022-08-08T16:07:51.450Z,1.10
2022-08-08T16:13:09.376Z,1.35
2022-08-08T16:13:34.189Z,1.10
2022-08-08T16:15:58.754Z,1.10
2022-08-08T16:18:37.466Z,1.25
2022-08-08T16:21:20.667Z,1.27
2022-08-08T16:23:55.724Z,1.20
2022-08-08T16:26:34.440Z,1.23
2022-08-08T16:29:08.263Z,1.27
2022-08-08T16:31:40.619Z,1.23
2022-08-08T16:34:08.808Z,1.10
2022-08-08T16:36:36.936Z,1.10
2022-08-08T16:39:16.654Z,1.23
2022-08-08T16:41:51.260Z,1.13
2022-08-08T16:44:27.741Z,1.30
2022-08-08T16:47:21.686Z,1.13
2022-08-08T16:49:52.164Z,1.10
2022-08-08T16:55:20.753Z,1.10
2022-08-08T16:55:54.480Z,1.20
2022-08-08T16:58:15.177Z,1.20
2022-08-08T17:00:49.053Z,1.00
2022-08-08T17:03:24.255Z,1.23
2022-08-08T17:05:53.966Z,1.35
2022-08-08T17:08:23.550Z,1.15
2022-08-08T17:10:59.458Z,1.20
2022-08-08T17:13:40.960Z,1.30
2022-08-08T17:16:17.589Z,0.90
2022-08-08T17:18:51.205Z,1.20
2022-08-08T17:21:21.384Z,1.38
2022-08-08T17:23:58.208Z,1.30
2022-08-08T17:26:29.370Z,1.10
2022-08-08T17:28:58.655Z,1.42
2022-08-08T17:31:43.509Z,1.10
2022-08-08T17:34:53.146Z,1.20
2022-08-08T17:37:06.767Z,1.20
2022-08-08T17:40:03.137Z,1.20
2022-08-08T17:42:25.008Z,1.10
2022-08-08T17:44:52.961Z,1.27
2022-08-08T17:47:27.843Z,1.08
2022-08-08T17:50:00.965Z,1.13
2022-08-08T17:52:30.662Z,1.30
2022-08-08T17:54:58.436Z,1.20
2022-08-08T17:57:28.690Z,1.08
2022-08-08T18:00:02.919Z,1.10
2022-08-08T18:02:32.049Z,1.17
2022-08-08T18:05:04.822Z,1.25
2022-08-08T18:08:12.435Z,1.13
2022-08-08T18:10:20.648Z,0.95
2022-08-08T18:13:00.495Z,1.10
2022-08-08T18:15:28.406Z,1.10
2022-08-08T18:18:09.139Z,1.23
2022-08-08T18:20:54.933Z,1.08
2022-08-08T18:23:23.140Z,1.10
2022-08-08T18:25:51.773Z,1.02
2022-08-08T18:28:23.531Z,1.10
2022-08-08T18:30:53.532Z,1.30
2022-08-08T18:34:11.431Z,1.13
2022-08-08T18:36:18.857Z,1.20
2022-08-08T18:38:51.177Z,1.00
2022-08-08T18:41:19.612Z,1.00
2022-08-08T18:44:07.301Z,1.00
2022-08-08T18:46:54.833Z,1.20
2022-08-08T18:49:32.581Z,1.10
2022-08-08T18:52:18.438Z,1.25
2022-08-08T18:54:59.273Z,1.15
2022-08-08T18:57:28.205Z,1.02
2022-08-08T19:00:00.626Z,1.10
2022-08-08T19:02:30.057Z,1.02
2022-08-08T19:04:58.763Z,1.02
2022-08-08T19:07:29.556Z,0.90
2022-08-08T19:10:14.561Z,1.02
2022-08-08T19:12:44.707Z,1.15
2022-08-08T19:15:23.949Z,1.30
2022-08-08T19:18:32.523Z,1.10
2022-08-08T19:20:46.694Z,1.00
2022-08-08T19:23:16.751Z,1.00
2022-08-08T19:26:19.636Z,1.23
2022-08-08T19:28:32.377Z,0.95
2022-08-08T19:31:08.899Z,1.02
2022-08-08T19:33:51.819Z,1.10
2022-08-08T19:36:27.803Z,0.95
2022-08-08T19:38:57.476Z,1.38
2022-08-08T19:41:29.345Z,1.00
2022-08-08T19:44:03.166Z,1.10
2022-08-08T19:46:33.347Z,1.10
2022-08-08T19:49:01.798Z,1.10
2022-08-08T19:51:34.831Z,1.20
2022-08-08T19:54:12.676Z,1.02
2022-08-08T19:56:41.503Z,1.00
2022-08-08T19:59:22.260Z,1.02
2022-08-08T20:02:03.418Z,1.00
2022-08-08T20:04:32.128Z,1.00
2022-08-08T20:07:05.313Z,1.20
2022-08-08T20:09:55.649Z,1.20
2022-08-08T20:12:34.460Z,1.00
2022-08-08T20:15:14.546Z,1.00
2022-08-08T20:17:45.267Z,1.10
2022-08-08T20:20:15.941Z,1.10
2022-08-08T20:22:52.476Z,1.00
2022-08-08T20:25:24.600Z,1.05
2022-08-08T20:27:54.029Z,1.00
2022-08-08T20:30:53.797Z,0.93
2022-08-08T20:33:19.863Z,1.00
2022-08-08T20:35:58.108Z,0.80
2022-08-08T20:38:32.027Z,1.27
2022-08-08T20:41:05.738Z,1.10
2022-08-08T20:43:49.800Z,1.02
2022-08-08T20:46:20.523Z,1.27
2022-08-08T20:48:50.952Z,0.90
2022-08-08T20:51:20.935Z,1.10
2022-08-08T20:54:00.076Z,1.20
2022-08-08T20:56:35.461Z,1.10
2022-08-08T20:59:05.624Z,1.15
2022-08-08T21:01:44.248Z,1.10
2022-08-08T21:04:23.326Z,1.10
2022-08-08T21:06:52.898Z,1.02
2022-08-08T21:09:21.873Z,1.15
2022-08-08T21:11:53.594Z,1.00
2022-08-08T21:14:34.391Z,1.00
2022-08-08T21:17:03.024Z,1.00
2022-08-08T21:19:43.999Z,1.20
2022-08-08T21:22:12.858Z,1.20
2022-08-08T21:24:41.996Z,0.90
2022-08-08T21:28:05.243Z,1.00
2022-08-08T21:30:19.094Z,1.00
2022-08-08T21:32:51.886Z,0.90
2022-08-08T21:36:14.173Z,1.00
2022-08-08T21:38:16.225Z,1.00
2022-08-08T21:40:55.017Z,0.90
2022-08-08T21:43:33.670Z,1.05
2022-08-08T21:48:21.652Z,1.00
2022-08-08T21:48:51.804Z,0.95
2022-08-08T21:54:18.568Z,1.10
2022-08-08T21:54:33.840Z,0.90
2022-08-08T21:56:57.334Z,1.08
2022-08-08T22:00:03.358Z,1.00
2022-08-08T22:02:22.948Z,0.95
2022-08-08T22:04:51.030Z,1.20
2022-08-08T22:07:19.232Z,0.80
2022-08-08T22:09:47.373Z,0.95
2022-08-08T22:12:16.972Z,1.10
2022-08-08T22:14:47.309Z,1.00
2022-08-08T22:17:19.122Z,1.15
2022-08-08T22:20:12.517Z,1.10
2022-08-08T22:22:38.053Z,1.00
2022-08-08T22:25:12.121Z,1.10
2022-08-08T22:28:03.006Z,1.00
2022-08-08T22:30:34.705Z,1.02
2022-08-08T22:33:02.601Z,0.88
2022-08-08T22:36:04.385Z,0.95
2022-08-08T22:38:24.526Z,1.08
2022-08-08T22:40:52.243Z,1.20
2022-08-08T22:43:20.020Z,1.00
2022-08-08T22:45:52.762Z,1.00
2022-08-08T22:48:21.788Z,0.88
2022-08-08T22:50:50.234Z,0.90
2022-08-08T22:54:29.239Z,0.95
2022-08-08T22:56:06.844Z,0.90
2022-08-08T22:58:35.239Z,0.90
2022-08-08T23:02:00.750Z,1.10
2022-08-08T23:03:56.599Z,0.90
2022-08-08T23:06:24.984Z,0.80
2022-08-08T23:08:56.062Z,1.10
2022-08-08T23:11:31.438Z,1.00
2022-08-08T23:14:16.004Z,0.80
2022-08-08T23:16:48.124Z,1.00
2022-08-08T23:19:22.368Z,0.88
2022-08-08T23:21:50.609Z,0.80
2022-08-08T23:24:22.956Z,1.02
2022-08-08T23:26:53.493Z,1.10
2022-08-08T23:29:24.577Z,1.00
2022-08-08T23:31:54.245Z,1.00
2022-08-08T23:34:22.103Z,1.35
2022-08-08T23:36:52.280Z,1.00
2022-08-08T23:39:22.328Z,1.00
2022-08-08T23:41:50.051Z,0.90
2022-08-08T23:44:18.630Z,0.93
2022-08-08T23:49:02.236Z,0.90
2022-08-08T23:49:35.795Z,0.95
2022-08-08T23:52:08.182Z,0.90
2022-08-08T23:54:42.874Z,0.95
2022-08-08T23:57:26.849Z,0.80
